sensor_id;sensor_type;location;lat;lon;timestamp;P1;durP1;ratioP1;P2;durP2;ratioP2
20832;SDS011;56075;51.264;7.150;2023-11-19T00:00:22;7.25;;;4.35;;
20832;SDS011;56075;51.264;7.150;2023-11-19T00:02:54;8.07;;;4.70;;
20832;SDS011;56075;51.264;7.150;2023-11-19T00:05:25;10.52;;;5.22;;
20832;SDS011;56075;51.264;7.150;2023-11-19T00:07:58;10.52;;;6.07;;
20832;SDS011;56075;51.264;7.150;2023-11-19T00:10:29;11.43;;;6.13;;
20832;SDS011;56075;51.264;7.150;2023-11-19T00:13:00;14.07;;;6.97;;
20832;SDS011;56075;51.264;7.150;2023-11-19T00:15:33;15.20;;;6.47;;
20832;SDS011;56075;51.264;7.150;2023-11-19T00:18:04;11.20;;;6.43;;
20832;SDS011;56075;51.264;7.150;2023-11-19T00:20:36;13.07;;;6.75;;
20832;SDS011;56075;51.264;7.150;2023-11-19T00:23:07;13.98;;;6.90;;
20832;SDS011;56075;51.264;7.150;2023-11-19T00:25:38;13.60;;;7.13;;
20832;SDS011;56075;51.264;7.150;2023-11-19T00:28:09;12.80;;;6.30;;
20832;SDS011;56075;51.264;7.150;2023-11-19T00:30:41;11.98;;;6.47;;
20832;SDS011;56075;51.264;7.150;2023-11-19T00:33:12;10.50;;;5.35;;
20832;SDS011;56075;51.264;7.150;2023-11-19T00:35:43;7.90;;;4.40;;
20832;SDS011;56075;51.264;7.150;2023-11-19T00:38:14;11.52;;;4.80;;
20832;SDS011;56075;51.264;7.150;2023-11-19T00:40:45;7.38;;;4.43;;
20832;SDS011;56075;51.264;7.150;2023-11-19T00:43:17;9.20;;;5.03;;
20832;SDS011;56075;51.264;7.150;2023-11-19T00:45:49;8.40;;;4.80;;
20832;SDS011;56075;51.264;7.150;2023-11-19T00:48:21;7.70;;;4.93;;
20832;SDS011;56075;51.264;7.150;2023-11-19T00:50:52;8.13;;;4.45;;
20832;SDS011;56075;51.264;7.150;2023-11-19T00:53:23;9.00;;;5.35;;
20832;SDS011;56075;51.264;7.150;2023-11-19T00:55:55;9.40;;;4.55;;
20832;SDS011;56075;51.264;7.150;2023-11-19T00:58:27;9.43;;;5.25;;
20832;SDS011;56075;51.264;7.150;2023-11-19T01:00:58;13.27;;;5.55;;
20832;SDS011;56075;51.264;7.150;2023-11-19T01:03:30;10.32;;;5.68;;
20832;SDS011;56075;51.264;7.150;2023-11-19T01:06:03;14.50;;;5.65;;
20832;SDS011;56075;51.264;7.150;2023-11-19T01:08:35;8.93;;;5.38;;
20832;SDS011;56075;51.264;7.150;2023-11-19T01:11:07;12.52;;;5.60;;
20832;SDS011;56075;51.264;7.150;2023-11-19T01:13:39;11.15;;;5.78;;
20832;SDS011;56075;51.264;7.150;2023-11-19T01:16:11;11.95;;;5.90;;
20832;SDS011;56075;51.264;7.150;2023-11-19T01:18:43;16.60;;;5.20;;
20832;SDS011;56075;51.264;7.150;2023-11-19T01:21:15;10.38;;;5.03;;
20832;SDS011;56075;51.264;7.150;2023-11-19T01:23:46;9.07;;;5.13;;
20832;SDS011;56075;51.264;7.150;2023-11-19T01:26:18;9.07;;;4.50;;
20832;SDS011;56075;51.264;7.150;2023-11-19T01:28:50;5.70;;;3.72;;
20832;SDS011;56075;51.264;7.150;2023-11-19T01:31:23;9.68;;;4.82;;
20832;SDS011;56075;51.264;7.150;2023-11-19T01:33:54;9.85;;;5.00;;
20832;SDS011;56075;51.264;7.150;2023-11-19T01:36:25;12.30;;;4.72;;
20832;SDS011;56075;51.264;7.150;2023-11-19T01:38:57;10.38;;;5.75;;
20832;SDS011;56075;51.264;7.150;2023-11-19T01:41:28;9.50;;;5.65;;
20832;SDS011;56075;51.264;7.150;2023-11-19T01:43:59;11.95;;;5.78;;
20832;SDS011;56075;51.264;7.150;2023-11-19T01:46:30;10.63;;;5.25;;
20832;SDS011;56075;51.264;7.150;2023-11-19T01:49:05;10.82;;;5.10;;
20832;SDS011;56075;51.264;7.150;2023-11-19T01:51:37;10.68;;;5.18;;
20832;SDS011;56075;51.264;7.150;2023-11-19T01:54:09;8.73;;;4.85;;
20832;SDS011;56075;51.264;7.150;2023-11-19T01:56:41;7.30;;;4.38;;
20832;SDS011;56075;51.264;7.150;2023-11-19T01:59:13;7.55;;;3.75;;
20832;SDS011;56075;51.264;7.150;2023-11-19T02:01:45;7.40;;;3.17;;
20832;SDS011;56075;51.264;7.150;2023-11-19T02:04:16;7.05;;;3.65;;
20832;SDS011;56075;51.264;7.150;2023-11-19T02:06:48;6.82;;;3.30;;
20832;SDS011;56075;51.264;7.150;2023-11-19T02:09:23;6.18;;;3.70;;
20832;SDS011;56075;51.264;7.150;2023-11-19T02:11:54;7.82;;;3.35;;
20832;SDS011;56075;51.264;7.150;2023-11-19T02:14:26;5.20;;;3.28;;
20832;SDS011;56075;51.264;7.150;2023-11-19T02:16:59;6.32;;;3.03;;
20832;SDS011;56075;51.264;7.150;2023-11-19T02:19:30;8.43;;;3.10;;
20832;SDS011;56075;51.264;7.150;2023-11-19T02:22:01;9.32;;;2.78;;
20832;SDS011;56075;51.264;7.150;2023-11-19T02:24:33;7.13;;;2.60;;
20832;SDS011;56075;51.264;7.150;2023-11-19T02:27:08;9.70;;;3.08;;
20832;SDS011;56075;51.264;7.150;2023-11-19T02:29:45;8.07;;;2.60;;
20832;SDS011;56075;51.264;7.150;2023-11-19T02:32:18;4.95;;;2.50;;
20832;SDS011;56075;51.264;7.150;2023-11-19T02:34:51;7.88;;;2.58;;
20832;SDS011;56075;51.264;7.150;2023-11-19T02:37:23;7.13;;;2.80;;
20832;SDS011;56075;51.264;7.150;2023-11-19T02:39:54;8.15;;;2.92;;
20832;SDS011;56075;51.264;7.150;2023-11-19T02:42:26;9.10;;;2.67;;
20832;SDS011;56075;51.264;7.150;2023-11-19T02:44:58;6.35;;;2.58;;
20832;SDS011;56075;51.264;7.150;2023-11-19T02:47:29;11.20;;;2.85;;
20832;SDS011;56075;51.264;7.150;2023-11-19T02:50:01;9.95;;;3.30;;
20832;SDS011;56075;51.264;7.150;2023-11-19T02:52:33;8.80;;;2.75;;
20832;SDS011;56075;51.264;7.150;2023-11-19T02:55:08;12.27;;;3.20;;
20832;SDS011;56075;51.264;7.150;2023-11-19T02:57:43;8.75;;;3.03;;
20832;SDS011;56075;51.264;7.150;2023-11-19T03:00:20;14.60;;;3.00;;
20832;SDS011;56075;51.264;7.150;2023-11-19T03:03:02;13.52;;;3.03;;
20832;SDS011;56075;51.264;7.150;2023-11-19T03:05:48;12.90;;;2.90;;
20832;SDS011;56075;51.264;7.150;2023-11-19T03:08:20;13.25;;;2.75;;
20832;SDS011;56075;51.264;7.150;2023-11-19T03:10:55;8.82;;;2.53;;
20832;SDS011;56075;51.264;7.150;2023-11-19T03:13:26;11.15;;;2.90;;
20832;SDS011;56075;51.264;7.150;2023-11-19T03:15:57;13.73;;;2.60;;
20832;SDS011;56075;51.264;7.150;2023-11-19T03:18:29;12.55;;;2.75;;
20832;SDS011;56075;51.264;7.150;2023-11-19T03:21:00;14.77;;;3.22;;
20832;SDS011;56075;51.264;7.150;2023-11-19T03:23:32;18.08;;;3.00;;
20832;SDS011;56075;51.264;7.150;2023-11-19T03:26:03;15.45;;;3.10;;
20832;SDS011;56075;51.264;7.150;2023-11-19T03:28:36;20.35;;;2.70;;
20832;SDS011;56075;51.264;7.150;2023-11-19T03:31:10;17.67;;;2.80;;
20832;SDS011;56075;51.264;7.150;2023-11-19T03:33:41;17.23;;;2.80;;
20832;SDS011;56075;51.264;7.150;2023-11-19T03:36:13;22.95;;;2.45;;
20832;SDS011;56075;51.264;7.150;2023-11-19T03:38:44;15.20;;;2.47;;
20832;SDS011;56075;51.264;7.150;2023-11-19T03:41:16;13.48;;;2.55;;
20832;SDS011;56075;51.264;7.150;2023-11-19T03:43:47;15.43;;;2.90;;
20832;SDS011;56075;51.264;7.150;2023-11-19T03:46:19;19.60;;;2.97;;
20832;SDS011;56075;51.264;7.150;2023-11-19T03:48:51;13.13;;;2.75;;
20832;SDS011;56075;51.264;7.150;2023-11-19T03:51:22;11.82;;;2.40;;
20832;SDS011;56075;51.264;7.150;2023-11-19T03:53:53;17.23;;;3.13;;
20832;SDS011;56075;51.264;7.150;2023-11-19T03:56:25;18.23;;;2.95;;
20832;SDS011;56075;51.264;7.150;2023-11-19T03:58:56;14.95;;;2.78;;
20832;SDS011;56075;51.264;7.150;2023-11-19T04:01:27;16.80;;;2.47;;
20832;SDS011;56075;51.264;7.150;2023-11-19T04:03:58;14.60;;;2.58;;
20832;SDS011;56075;51.264;7.150;2023-11-19T04:06:30;11.32;;;2.25;;
20832;SDS011;56075;51.264;7.150;2023-11-19T04:09:01;15.40;;;2.53;;
20832;SDS011;56075;51.264;7.150;2023-11-19T04:11:32;16.67;;;2.63;;
20832;SDS011;56075;51.264;7.150;2023-11-19T04:14:04;18.45;;;2.78;;
20832;SDS011;56075;51.264;7.150;2023-11-19T04:16:35;14.70;;;2.33;;
20832;SDS011;56075;51.264;7.150;2023-11-19T04:19:06;18.17;;;2.33;;
20832;SDS011;56075;51.264;7.150;2023-11-19T04:21:40;19.40;;;2.90;;
20832;SDS011;56075;51.264;7.150;2023-11-19T04:24:12;18.10;;;2.53;;
20832;SDS011;56075;51.264;7.150;2023-11-19T04:26:45;16.45;;;2.42;;
20832;SDS011;56075;51.264;7.150;2023-11-19T04:29:17;15.30;;;2.35;;
20832;SDS011;56075;51.264;7.150;2023-11-19T04:31:49;13.57;;;2.90;;
20832;SDS011;56075;51.264;7.150;2023-11-19T04:34:20;14.55;;;2.10;;
20832;SDS011;56075;51.264;7.150;2023-11-19T04:36:51;18.20;;;2.35;;
20832;SDS011;56075;51.264;7.150;2023-11-19T04:39:23;13.57;;;2.00;;
20832;SDS011;56075;51.264;7.150;2023-11-19T04:41:54;20.58;;;2.45;;
20832;SDS011;56075;51.264;7.150;2023-11-19T04:44:25;15.90;;;2.30;;
20832;SDS011;56075;51.264;7.150;2023-11-19T04:46:56;17.23;;;2.58;;
20832;SDS011;56075;51.264;7.150;2023-11-19T04:49:28;20.10;;;3.15;;
20832;SDS011;56075;51.264;7.150;2023-11-19T04:51:59;15.35;;;3.05;;
20832;SDS011;56075;51.264;7.150;2023-11-19T04:54:30;13.93;;;2.42;;
20832;SDS011;56075;51.264;7.150;2023-11-19T04:57:01;17.95;;;2.53;;
20832;SDS011;56075;51.264;7.150;2023-11-19T04:59:34;18.50;;;2.38;;
20832;SDS011;56075;51.264;7.150;2023-11-19T05:02:05;17.65;;;2.45;;
20832;SDS011;56075;51.264;7.150;2023-11-19T05:04:36;20.42;;;2.83;;
20832;SDS011;56075;51.264;7.150;2023-11-19T05:07:10;18.17;;;2.40;;
20832;SDS011;56075;51.264;7.150;2023-11-19T05:09:41;16.25;;;2.58;;
20832;SDS011;56075;51.264;7.150;2023-11-19T05:12:13;16.90;;;2.30;;
20832;SDS011;56075;51.264;7.150;2023-11-19T05:14:44;20.15;;;2.38;;
20832;SDS011;56075;51.264;7.150;2023-11-19T05:17:20;20.23;;;2.25;;
20832;SDS011;56075;51.264;7.150;2023-11-19T05:19:51;14.32;;;2.10;;
20832;SDS011;56075;51.264;7.150;2023-11-19T05:22:22;24.13;;;2.50;;
20832;SDS011;56075;51.264;7.150;2023-11-19T05:24:53;18.40;;;2.47;;
20832;SDS011;56075;51.264;7.150;2023-11-19T05:27:26;21.45;;;2.60;;
20832;SDS011;56075;51.264;7.150;2023-11-19T05:29:57;17.63;;;2.70;;
20832;SDS011;56075;51.264;7.150;2023-11-19T05:32:28;19.23;;;2.28;;
20832;SDS011;56075;51.264;7.150;2023-11-19T05:35:00;24.05;;;2.75;;
20832;SDS011;56075;51.264;7.150;2023-11-19T05:37:31;17.45;;;2.50;;
20832;SDS011;56075;51.264;7.150;2023-11-19T05:40:02;17.55;;;2.78;;
20832;SDS011;56075;51.264;7.150;2023-11-19T05:42:37;21.25;;;2.20;;
20832;SDS011;56075;51.264;7.150;2023-11-19T05:45:10;19.02;;;2.30;;
20832;SDS011;56075;51.264;7.150;2023-11-19T05:47:42;19.13;;;2.63;;
20832;SDS011;56075;51.264;7.150;2023-11-19T05:50:14;20.70;;;2.50;;
20832;SDS011;56075;51.264;7.150;2023-11-19T05:52:45;20.35;;;2.30;;
20832;SDS011;56075;51.264;7.150;2023-11-19T05:55:17;17.42;;;2.45;;
20832;SDS011;56075;51.264;7.150;2023-11-19T05:57:48;22.40;;;2.40;;
20832;SDS011;56075;51.264;7.150;2023-11-19T06:00:19;19.23;;;2.42;;
20832;SDS011;56075;51.264;7.150;2023-11-19T06:02:50;17.00;;;2.42;;
20832;SDS011;56075;51.264;7.150;2023-11-19T06:05:22;20.42;;;2.58;;
20832;SDS011;56075;51.264;7.150;2023-11-19T06:07:53;26.10;;;2.65;;
20832;SDS011;56075;51.264;7.150;2023-11-19T06:10:24;15.13;;;1.88;;
20832;SDS011;56075;51.264;7.150;2023-11-19T06:13:01;19.80;;;2.72;;
20832;SDS011;56075;51.264;7.150;2023-11-19T06:15:35;19.05;;;2.58;;
20832;SDS011;56075;51.264;7.150;2023-11-19T06:18:07;18.05;;;2.55;;
20832;SDS011;56075;51.264;7.150;2023-11-19T06:20:38;19.42;;;2.53;;
20832;SDS011;56075;51.264;7.150;2023-11-19T06:23:11;21.08;;;3.03;;
20832;SDS011;56075;51.264;7.150;2023-11-19T06:25:43;17.33;;;2.42;;
20832;SDS011;56075;51.264;7.150;2023-11-19T06:28:14;15.55;;;2.67;;
20832;SDS011;56075;51.264;7.150;2023-11-19T06:30:46;13.40;;;2.33;;
20832;SDS011;56075;51.264;7.150;2023-11-19T06:33:17;16.52;;;2.30;;
20832;SDS011;56075;51.264;7.150;2023-11-19T06:35:48;17.83;;;2.35;;
20832;SDS011;56075;51.264;7.150;2023-11-19T06:38:20;22.63;;;2.58;;
20832;SDS011;56075;51.264;7.150;2023-11-19T06:40:51;19.92;;;2.50;;
20832;SDS011;56075;51.264;7.150;2023-11-19T06:43:22;22.52;;;3.00;;
20832;SDS011;56075;51.264;7.150;2023-11-19T06:45:54;20.27;;;2.17;;
20832;SDS011;56075;51.264;7.150;2023-11-19T06:48:25;14.18;;;2.10;;
20832;SDS011;56075;51.264;7.150;2023-11-19T06:50:56;25.13;;;3.08;;
20832;SDS011;56075;51.264;7.150;2023-11-19T06:53:27;20.50;;;3.08;;
20832;SDS011;56075;51.264;7.150;2023-11-19T06:55:59;21.67;;;2.53;;
20832;SDS011;56075;51.264;7.150;2023-11-19T06:58:31;22.95;;;2.67;;
20832;SDS011;56075;51.264;7.150;2023-11-19T07:01:03;18.90;;;2.63;;
20832;SDS011;56075;51.264;7.150;2023-11-19T07:03:38;21.85;;;2.55;;
20832;SDS011;56075;51.264;7.150;2023-11-19T07:06:10;23.88;;;2.72;;
20832;SDS011;56075;51.264;7.150;2023-11-19T07:08:41;21.05;;;2.22;;
20832;SDS011;56075;51.264;7.150;2023-11-19T07:11:16;26.08;;;2.40;;
20832;SDS011;56075;51.264;7.150;2023-11-19T07:13:47;24.45;;;2.58;;
20832;SDS011;56075;51.264;7.150;2023-11-19T07:16:19;24.80;;;3.15;;
20832;SDS011;56075;51.264;7.150;2023-11-19T07:18:52;21.73;;;2.85;;
20832;SDS011;56075;51.264;7.150;2023-11-19T07:21:23;19.70;;;2.10;;
20832;SDS011;56075;51.264;7.150;2023-11-19T07:23:54;23.90;;;2.85;;
20832;SDS011;56075;51.264;7.150;2023-11-19T07:26:26;26.60;;;2.90;;
20832;SDS011;56075;51.264;7.150;2023-11-19T07:28:57;21.95;;;2.88;;
20832;SDS011;56075;51.264;7.150;2023-11-19T07:31:29;22.55;;;2.78;;
20832;SDS011;56075;51.264;7.150;2023-11-19T07:34:00;22.60;;;2.60;;
20832;SDS011;56075;51.264;7.150;2023-11-19T07:36:31;22.08;;;2.65;;
20832;SDS011;56075;51.264;7.150;2023-11-19T07:39:03;31.85;;;3.10;;
20832;SDS011;56075;51.264;7.150;2023-11-19T07:41:35;19.80;;;2.70;;
20832;SDS011;56075;51.264;7.150;2023-11-19T07:44:10;20.77;;;2.78;;
20832;SDS011;56075;51.264;7.150;2023-11-19T07:46:41;21.30;;;3.05;;
20832;SDS011;56075;51.264;7.150;2023-11-19T07:49:13;20.63;;;2.33;;
20832;SDS011;56075;51.264;7.150;2023-11-19T07:51:45;25.83;;;2.88;;
20832;SDS011;56075;51.264;7.150;2023-11-19T07:54:16;30.10;;;3.53;;
20832;SDS011;56075;51.264;7.150;2023-11-19T07:56:47;17.60;;;2.53;;
20832;SDS011;56075;51.264;7.150;2023-11-19T07:59:20;27.65;;;2.67;;
20832;SDS011;56075;51.264;7.150;2023-11-19T08:01:52;28.20;;;2.55;;
20832;SDS011;56075;51.264;7.150;2023-11-19T08:04:23;22.80;;;2.80;;
20832;SDS011;56075;51.264;7.150;2023-11-19T08:06:54;24.30;;;2.70;;
20832;SDS011;56075;51.264;7.150;2023-11-19T08:09:26;28.50;;;3.25;;
20832;SDS011;56075;51.264;7.150;2023-11-19T08:11:57;23.90;;;2.70;;
20832;SDS011;56075;51.264;7.150;2023-11-19T08:14:28;27.95;;;2.95;;
20832;SDS011;56075;51.264;7.150;2023-11-19T08:16:59;26.48;;;2.60;;
20832;SDS011;56075;51.264;7.150;2023-11-19T08:19:32;20.50;;;2.72;;
20832;SDS011;56075;51.264;7.150;2023-11-19T08:22:03;21.52;;;2.92;;
20832;SDS011;56075;51.264;7.150;2023-11-19T08:24:34;31.92;;;3.35;;
20832;SDS011;56075;51.264;7.150;2023-11-19T08:27:06;25.65;;;2.92;;
20832;SDS011;56075;51.264;7.150;2023-11-19T08:29:37;26.45;;;3.15;;
20832;SDS011;56075;51.264;7.150;2023-11-19T08:32:09;26.23;;;3.42;;
20832;SDS011;56075;51.264;7.150;2023-11-19T08:34:41;27.63;;;3.08;;
20832;SDS011;56075;51.264;7.150;2023-11-19T08:37:12;30.02;;;2.95;;
20832;SDS011;56075;51.264;7.150;2023-11-19T08:39:44;23.17;;;2.88;;
20832;SDS011;56075;51.264;7.150;2023-11-19T08:42:15;24.52;;;3.05;;
20832;SDS011;56075;51.264;7.150;2023-11-19T08:44:50;28.42;;;2.70;;
20832;SDS011;56075;51.264;7.150;2023-11-19T08:47:24;22.33;;;2.80;;
20832;SDS011;56075;51.264;7.150;2023-11-19T08:49:56;29.80;;;3.22;;
20832;SDS011;56075;51.264;7.150;2023-11-19T08:52:30;19.55;;;2.60;;
20832;SDS011;56075;51.264;7.150;2023-11-19T08:55:01;22.40;;;2.72;;
20832;SDS011;56075;51.264;7.150;2023-11-19T08:57:33;16.30;;;2.28;;
20832;SDS011;56075;51.264;7.150;2023-11-19T09:00:05;29.27;;;3.22;;
20832;SDS011;56075;51.264;7.150;2023-11-19T09:02:39;22.23;;;2.78;;
20832;SDS011;56075;51.264;7.150;2023-11-19T09:05:11;25.85;;;3.05;;
20832;SDS011;56075;51.264;7.150;2023-11-19T09:07:43;19.83;;;2.75;;
20832;SDS011;56075;51.264;7.150;2023-11-19T09:10:14;26.58;;;3.00;;
20832;SDS011;56075;51.264;7.150;2023-11-19T09:12:45;19.75;;;2.60;;
20832;SDS011;56075;51.264;7.150;2023-11-19T09:15:18;19.58;;;3.38;;
20832;SDS011;56075;51.264;7.150;2023-11-19T09:17:49;26.20;;;3.33;;
20832;SDS011;56075;51.264;7.150;2023-11-19T09:20:20;29.73;;;3.30;;
20832;SDS011;56075;51.264;7.150;2023-11-19T09:22:51;23.58;;;2.70;;
20832;SDS011;56075;51.264;7.150;2023-11-19T09:25:23;24.30;;;2.72;;
20832;SDS011;56075;51.264;7.150;2023-11-19T09:27:54;24.35;;;3.08;;
20832;SDS011;56075;51.264;7.150;2023-11-19T09:30:26;30.50;;;2.72;;
20832;SDS011;56075;51.264;7.150;2023-11-19T09:32:57;17.20;;;2.53;;
20832;SDS011;56075;51.264;7.150;2023-11-19T09:35:28;21.42;;;2.90;;
20832;SDS011;56075;51.264;7.150;2023-11-19T09:37:59;20.15;;;2.65;;
20832;SDS011;56075;51.264;7.150;2023-11-19T09:40:31;29.50;;;3.13;;
20832;SDS011;56075;51.264;7.150;2023-11-19T09:43:03;20.75;;;2.60;;
20832;SDS011;56075;51.264;7.150;2023-11-19T09:45:52;16.80;;;2.97;;
20832;SDS011;56075;51.264;7.150;2023-11-19T09:48:24;23.38;;;3.20;;
20832;SDS011;56075;51.264;7.150;2023-11-19T09:50:56;32.60;;;3.60;;
20832;SDS011;56075;51.264;7.150;2023-11-19T09:53:28;26.38;;;3.65;;
20832;SDS011;56075;51.264;7.150;2023-11-19T09:56:00;19.90;;;2.88;;
20832;SDS011;56075;51.264;7.150;2023-11-19T09:58:34;22.30;;;2.70;;
20832;SDS011;56075;51.264;7.150;2023-11-19T10:01:05;21.75;;;3.10;;
20832;SDS011;56075;51.264;7.150;2023-11-19T10:03:40;20.55;;;2.55;;
20832;SDS011;56075;51.264;7.150;2023-11-19T10:06:14;19.90;;;2.75;;
20832;SDS011;56075;51.264;7.150;2023-11-19T10:08:45;16.27;;;2.55;;
20832;SDS011;56075;51.264;7.150;2023-11-19T10:11:17;32.10;;;3.53;;
20832;SDS011;56075;51.264;7.150;2023-11-19T10:13:48;29.85;;;3.33;;
20832;SDS011;56075;51.264;7.150;2023-11-19T10:16:20;25.75;;;3.08;;
20832;SDS011;56075;51.264;7.150;2023-11-19T10:18:51;21.60;;;2.50;;
20832;SDS011;56075;51.264;7.150;2023-11-19T10:21:22;17.02;;;2.75;;
20832;SDS011;56075;51.264;7.150;2023-11-19T10:23:55;25.52;;;3.03;;
20832;SDS011;56075;51.264;7.150;2023-11-19T10:26:30;26.95;;;3.15;;
20832;SDS011;56075;51.264;7.150;2023-11-19T10:29:01;21.90;;;3.33;;
20832;SDS011;56075;51.264;7.150;2023-11-19T10:31:32;25.70;;;3.13;;
20832;SDS011;56075;51.264;7.150;2023-11-19T10:34:03;23.73;;;3.08;;
20832;SDS011;56075;51.264;7.150;2023-11-19T10:36:54;20.75;;;2.97;;
20832;SDS011;56075;51.264;7.150;2023-11-19T10:39:30;22.00;;;2.80;;
20832;SDS011;56075;51.264;7.150;2023-11-19T10:42:24;25.17;;;2.88;;
20832;SDS011;56075;51.264;7.150;2023-11-19T10:44:56;22.35;;;3.20;;
20832;SDS011;56075;51.264;7.150;2023-11-19T10:47:27;24.77;;;3.00;;
20832;SDS011;56075;51.264;7.150;2023-11-19T10:50:01;24.90;;;2.97;;
20832;SDS011;56075;51.264;7.150;2023-11-19T10:52:32;22.67;;;3.00;;
20832;SDS011;56075;51.264;7.150;2023-11-19T10:55:04;27.55;;;3.17;;
20832;SDS011;56075;51.264;7.150;2023-11-19T10:57:42;25.77;;;3.20;;
20832;SDS011;56075;51.264;7.150;2023-11-19T11:00:17;20.23;;;3.03;;
20832;SDS011;56075;51.264;7.150;2023-11-19T11:02:54;25.65;;;3.22;;
20832;SDS011;56075;51.264;7.150;2023-11-19T11:05:29;27.70;;;3.28;;
20832;SDS011;56075;51.264;7.150;2023-11-19T11:08:04;20.23;;;2.35;;
20832;SDS011;56075;51.264;7.150;2023-11-19T11:10:39;20.60;;;2.83;;
20832;SDS011;56075;51.264;7.150;2023-11-19T11:13:14;25.92;;;2.80;;
20832;SDS011;56075;51.264;7.150;2023-11-19T11:15:45;18.65;;;3.08;;
20832;SDS011;56075;51.264;7.150;2023-11-19T11:18:17;21.85;;;3.17;;
20832;SDS011;56075;51.264;7.150;2023-11-19T11:20:48;21.75;;;3.00;;
20832;SDS011;56075;51.264;7.150;2023-11-19T11:29:02;19.73;;;2.30;;
20832;SDS011;56075;51.264;7.150;2023-11-19T11:37:21;20.50;;;2.50;;
20832;SDS011;56075;51.264;7.150;2023-11-19T11:40:04;25.70;;;2.83;;
20832;SDS011;56075;51.264;7.150;2023-11-19T11:42:40;21.27;;;2.60;;
20832;SDS011;56075;51.264;7.150;2023-11-19T11:45:13;22.45;;;2.75;;
20832;SDS011;56075;51.264;7.150;2023-11-19T11:50:25;18.77;;;2.65;;
20832;SDS011;56075;51.264;7.150;2023-11-19T11:55:35;21.25;;;2.38;;
20832;SDS011;56075;51.264;7.150;2023-11-19T11:58:08;21.17;;;2.35;;
20832;SDS011;56075;51.264;7.150;2023-11-19T12:00:39;15.90;;;2.15;;
20832;SDS011;56075;51.264;7.150;2023-11-19T12:03:12;18.77;;;3.03;;
20832;SDS011;56075;51.264;7.150;2023-11-19T12:05:46;19.67;;;2.65;;
20832;SDS011;56075;51.264;7.150;2023-11-19T12:08:19;18.33;;;2.60;;
20832;SDS011;56075;51.264;7.150;2023-11-19T12:10:56;19.40;;;2.92;;
20832;SDS011;56075;51.264;7.150;2023-11-19T12:13:42;17.98;;;2.63;;
20832;SDS011;56075;51.264;7.150;2023-11-19T12:16:18;18.67;;;2.25;;
20832;SDS011;56075;51.264;7.150;2023-11-19T12:18:52;17.23;;;2.60;;
20832;SDS011;56075;51.264;7.150;2023-11-19T12:21:28;16.48;;;2.35;;
20832;SDS011;56075;51.264;7.150;2023-11-19T12:24:03;15.82;;;2.20;;
20832;SDS011;56075;51.264;7.150;2023-11-19T12:26:38;20.38;;;2.72;;
20832;SDS011;56075;51.264;7.150;2023-11-19T12:29:09;17.27;;;2.15;;
20832;SDS011;56075;51.264;7.150;2023-11-19T12:31:43;17.23;;;2.60;;
20832;SDS011;56075;51.264;7.150;2023-11-19T12:34:15;18.30;;;2.38;;
20832;SDS011;56075;51.264;7.150;2023-11-19T12:36:46;13.13;;;2.03;;
20832;SDS011;56075;51.264;7.150;2023-11-19T12:39:17;17.60;;;2.30;;
20832;SDS011;56075;51.264;7.150;2023-11-19T12:41:50;16.88;;;2.20;;
20832;SDS011;56075;51.264;7.150;2023-11-19T12:44:23;14.15;;;1.92;;
20832;SDS011;56075;51.264;7.150;2023-11-19T12:47:12;22.75;;;2.67;;
20832;SDS011;56075;51.264;7.150;2023-11-19T12:49:43;11.80;;;2.30;;
20832;SDS011;56075;51.264;7.150;2023-11-19T12:52:25;17.88;;;2.20;;
20832;SDS011;56075;51.264;7.150;2023-11-19T12:54:57;21.77;;;1.90;;
20832;SDS011;56075;51.264;7.150;2023-11-19T12:57:41;17.83;;;2.85;;
20832;SDS011;56075;51.264;7.150;2023-11-19T13:00:19;17.92;;;2.45;;
20832;SDS011;56075;51.264;7.150;2023-11-19T13:02:53;21.70;;;2.95;;
20832;SDS011;56075;51.264;7.150;2023-11-19T13:08:00;21.63;;;2.70;;
20832;SDS011;56075;51.264;7.150;2023-11-19T13:10:31;18.85;;;2.53;;
20832;SDS011;56075;51.264;7.150;2023-11-19T13:13:05;13.63;;;2.35;;
20832;SDS011;56075;51.264;7.150;2023-11-19T13:15:38;13.00;;;2.17;;
20832;SDS011;56075;51.264;7.150;2023-11-19T13:18:10;15.98;;;2.45;;
20832;SDS011;56075;51.264;7.150;2023-11-19T13:20:42;17.50;;;2.35;;
20832;SDS011;56075;51.264;7.150;2023-11-19T13:23:13;20.73;;;2.45;;
20832;SDS011;56075;51.264;7.150;2023-11-19T13:25:45;18.95;;;2.92;;
20832;SDS011;56075;51.264;7.150;2023-11-19T13:28:17;19.80;;;2.72;;
20832;SDS011;56075;51.264;7.150;2023-11-19T13:30:48;19.35;;;2.63;;
20832;SDS011;56075;51.264;7.150;2023-11-19T13:33:21;18.80;;;2.55;;
20832;SDS011;56075;51.264;7.150;2023-11-19T13:35:52;18.38;;;2.60;;
20832;SDS011;56075;51.264;7.150;2023-11-19T13:38:23;14.73;;;2.00;;
20832;SDS011;56075;51.264;7.150;2023-11-19T13:40:54;16.73;;;2.38;;
20832;SDS011;56075;51.264;7.150;2023-11-19T13:43:26;15.43;;;2.15;;
20832;SDS011;56075;51.264;7.150;2023-11-19T13:45:58;17.17;;;2.97;;
20832;SDS011;56075;51.264;7.150;2023-11-19T13:48:29;15.55;;;1.80;;
20832;SDS011;56075;51.264;7.150;2023-11-19T13:51:00;13.05;;;2.25;;
20832;SDS011;56075;51.264;7.150;2023-11-19T13:53:32;16.08;;;2.08;;
20832;SDS011;56075;51.264;7.150;2023-11-19T13:56:03;12.18;;;2.10;;
20832;SDS011;56075;51.264;7.150;2023-11-19T13:58:35;11.88;;;2.08;;
20832;SDS011;56075;51.264;7.150;2023-11-19T14:01:08;22.00;;;2.40;;
20832;SDS011;56075;51.264;7.150;2023-11-19T14:03:39;15.18;;;1.90;;
20832;SDS011;56075;51.264;7.150;2023-11-19T14:06:11;16.15;;;2.08;;
20832;SDS011;56075;51.264;7.150;2023-11-19T14:08:43;12.02;;;2.05;;
20832;SDS011;56075;51.264;7.150;2023-11-19T14:11:14;12.43;;;2.22;;
20832;SDS011;56075;51.264;7.150;2023-11-19T14:13:45;18.70;;;2.47;;
20832;SDS011;56075;51.264;7.150;2023-11-19T14:16:17;20.20;;;3.30;;
20832;SDS011;56075;51.264;7.150;2023-11-19T14:18:49;14.57;;;2.30;;
20832;SDS011;56075;51.264;7.150;2023-11-19T14:21:20;21.73;;;2.70;;
20832;SDS011;56075;51.264;7.150;2023-11-19T14:23:52;21.58;;;3.05;;
20832;SDS011;56075;51.264;7.150;2023-11-19T14:26:23;18.90;;;2.67;;
20832;SDS011;56075;51.264;7.150;2023-11-19T14:28:54;16.67;;;2.85;;
20832;SDS011;56075;51.264;7.150;2023-11-19T14:31:27;22.90;;;3.17;;
20832;SDS011;56075;51.264;7.150;2023-11-19T14:34:00;13.23;;;2.20;;
20832;SDS011;56075;51.264;7.150;2023-11-19T14:36:31;17.58;;;2.97;;
20832;SDS011;56075;51.264;7.150;2023-11-19T14:39:02;18.70;;;2.78;;
20832;SDS011;56075;51.264;7.150;2023-11-19T14:41:35;21.33;;;2.83;;
20832;SDS011;56075;51.264;7.150;2023-11-19T14:44:06;18.92;;;2.28;;
20832;SDS011;56075;51.264;7.150;2023-11-19T14:46:37;20.33;;;2.60;;
20832;SDS011;56075;51.264;7.150;2023-11-19T14:49:09;19.45;;;2.47;;
20832;SDS011;56075;51.264;7.150;2023-11-19T14:51:40;23.23;;;3.05;;
20832;SDS011;56075;51.264;7.150;2023-11-19T14:54:12;19.00;;;2.47;;
20832;SDS011;56075;51.264;7.150;2023-11-19T14:56:45;28.65;;;3.25;;
20832;SDS011;56075;51.264;7.150;2023-11-19T14:59:16;19.75;;;2.95;;
20832;SDS011;56075;51.264;7.150;2023-11-19T15:01:48;24.67;;;2.83;;
20832;SDS011;56075;51.264;7.150;2023-11-19T15:04:19;22.52;;;3.10;;
20832;SDS011;56075;51.264;7.150;2023-11-19T15:06:50;28.90;;;3.63;;
20832;SDS011;56075;51.264;7.150;2023-11-19T15:09:22;20.30;;;2.72;;
20832;SDS011;56075;51.264;7.150;2023-11-19T15:11:53;28.13;;;3.60;;
20832;SDS011;56075;51.264;7.150;2023-11-19T15:14:25;23.58;;;2.90;;
20832;SDS011;56075;51.264;7.150;2023-11-19T15:16:56;26.42;;;3.85;;
20832;SDS011;56075;51.264;7.150;2023-11-19T15:19:28;24.20;;;2.83;;
20832;SDS011;56075;51.264;7.150;2023-11-19T15:22:00;26.30;;;3.20;;
20832;SDS011;56075;51.264;7.150;2023-11-19T15:24:35;27.95;;;3.13;;